createdAt,value
2023-04-10T00:03:33.920Z,16.75
2023-04-10T00:08:35.502Z,17.30
2023-04-10T00:13:37.060Z,13.75
2023-04-10T00:18:38.586Z,21.52
2023-04-10T00:23:40.123Z,15.02
2023-04-10T00:28:41.629Z,15.45
2023-04-10T00:33:43.242Z,15.27
2023-04-10T00:38:44.841Z,16.98
2023-04-10T00:43:46.474Z,15.82
2023-04-10T00:48:48.206Z,14.10
2023-04-10T00:53:51.842Z,13.50
2023-04-10T00:58:53.586Z,13.07
2023-04-10T01:03:56.722Z,14.82
2023-04-10T01:09:12.708Z,14.90
2023-04-10T01:14:33.136Z,16.15
2023-04-10T01:20:14.547Z,15.40
2023-04-10T01:25:34.714Z,15.65
2023-04-10T01:30:37.655Z,16.48
2023-04-10T01:35:43.222Z,14.85
2023-04-10T01:40:46.715Z,15.52
2023-04-10T01:45:54.285Z,14.05
2023-04-10T01:50:56.755Z,13.98
2023-04-10T01:55:59.812Z,14.32
2023-04-10T02:01:01.847Z,13.77
2023-04-10T02:06:28.478Z,16.13
2023-04-10T02:11:58.124Z,15.33
2023-04-10T02:17:03.590Z,13.02
2023-04-10T02:22:05.994Z,13.93
2023-04-10T02:27:08.675Z,16.27
2023-04-10T02:32:10.592Z,11.80
2023-04-10T02:37:12.398Z,15.05
2023-04-10T02:42:14.625Z,14.95
2023-04-10T02:47:20.492Z,14.23
2023-04-10T02:52:23.604Z,12.77
2023-04-10T02:57:25.792Z,13.23
2023-04-10T03:02:27.937Z,13.38
2023-04-10T03:07:33.568Z,12.50
2023-04-10T03:12:35.687Z,12.98
2023-04-10T03:17:37.724Z,12.95
2023-04-10T03:22:41.117Z,14.82
2023-04-10T03:27:44.257Z,13.38
2023-04-10T03:32:46.367Z,12.82
2023-04-10T03:37:48.138Z,15.23
2023-04-10T03:42:50.199Z,13.20
2023-04-10T03:53:22.238Z,13.93
2023-04-10T04:03:30.199Z,15.98
2023-04-10T04:08:41.291Z,12.82
2023-04-10T04:13:53.911Z,14.55
2023-04-10T04:19:15.675Z,13.00
2023-04-10T04:24:39.007Z,14.13
2023-04-10T04:29:54.430Z,13.48
2023-04-10T04:35:19.524Z,13.55
2023-04-10T04:40:41.733Z,12.98
2023-04-10T04:46:02.901Z,13.07
2023-04-10T04:51:24.604Z,14.55
2023-04-10T04:56:37.097Z,14.98
2023-04-10T05:01:51.060Z,16.70
2023-04-10T05:07:09.206Z,14.43
2023-04-10T05:12:29.279Z,14.13
2023-04-10T05:17:37.069Z,14.38
2023-04-10T05:23:02.785Z,13.45
2023-04-10T05:28:28.880Z,13.52
2023-04-10T05:33:45.903Z,12.85
2023-04-10T05:39:07.147Z,11.13
2023-04-10T05:44:28.061Z,10.15
2023-04-10T05:50:02.097Z,13.10
2023-04-10T05:55:27.553Z,10.40
2023-04-10T06:00:52.419Z,10.48
2023-04-10T06:06:21.262Z,10.32
2023-04-10T06:11:25.736Z,10.50
2023-04-10T06:16:30.462Z,9.77
2023-04-10T06:21:32.702Z,10.30
2023-04-10T06:26:34.866Z,11.25
2023-04-10T06:31:38.935Z,9.73
2023-04-10T06:36:41.444Z,9.20
2023-04-10T06:41:44.171Z,10.20
2023-04-10T06:47:17.314Z,9.75
2023-04-10T06:52:19.550Z,8.45
2023-04-10T06:57:21.688Z,7.78
2023-04-10T07:02:23.795Z,8.48
2023-04-10T07:07:25.761Z,9.50
2023-04-10T07:12:27.632Z,9.10
2023-04-10T07:17:29.509Z,7.97
2023-04-10T07:22:31.706Z,7.20
2023-04-10T07:27:34.670Z,10.18
2023-04-10T07:32:36.353Z,8.55
2023-04-10T07:37:38.800Z,9.85
2023-04-10T07:42:41.065Z,8.95
2023-04-10T07:47:43.587Z,7.88
2023-04-10T07:52:45.381Z,7.75
2023-04-10T07:57:48.136Z,7.43
2023-04-10T08:02:50.679Z,7.20
2023-04-10T08:07:53.131Z,8.48
2023-04-10T08:12:55.562Z,7.03
2023-04-10T08:17:57.435Z,7.38
2023-04-10T08:23:12.374Z,7.63
2023-04-10T08:28:21.588Z,7.53
2023-04-10T08:33:23.828Z,8.10
2023-04-10T08:38:26.222Z,6.00
2023-04-10T08:43:32.323Z,10.52
2023-04-10T08:49:05.062Z,6.65
2023-04-10T08:54:10.978Z,6.57
2023-04-10T08:59:13.014Z,6.32
2023-04-10T09:04:15.601Z,5.63
2023-04-10T09:09:18.403Z,7.72
2023-04-10T09:14:25.655Z,5.63
2023-04-10T09:19:32.292Z,6.28
2023-04-10T09:24:42.981Z,5.72
2023-04-10T09:29:47.536Z,5.70
2023-04-10T09:34:56.126Z,6.03
2023-04-10T09:40:08.185Z,6.78
2023-04-10T09:45:10.262Z,9.60
2023-04-10T09:50:12.538Z,5.45
2023-04-10T09:55:17.754Z,5.55
2023-04-10T10:00:21.860Z,5.07
2023-04-10T10:05:25.075Z,5.00
2023-04-10T10:10:30.253Z,5.85
2023-04-10T10:15:51.823Z,4.57
2023-04-10T10:20:54.474Z,6.03
2023-04-10T10:25:58.355Z,5.22
2023-04-10T10:31:00.904Z,7.47
2023-04-10T10:36:04.685Z,4.80
2023-04-10T10:41:29.497Z,4.20
2023-04-10T10:46:40.799Z,4.72
2023-04-10T10:51:51.728Z,5.97
2023-04-10T10:56:53.305Z,5.25
2023-04-10T11:02:14.360Z,5.40
2023-04-10T11:07:16.303Z,4.97
2023-04-10T11:12:25.589Z,4.93
2023-04-10T11:17:52.851Z,4.00
2023-04-10T11:23:11.041Z,4.25
2023-04-10T11:28:36.606Z,5.10
2023-04-10T11:33:38.204Z,5.20
2023-04-10T11:38:39.836Z,3.88
2023-04-10T11:43:41.961Z,3.47
2023-04-10T11:48:43.916Z,4.43
2023-04-10T11:53:45.646Z,5.28
2023-04-10T11:58:50.707Z,3.45
2023-04-10T12:03:52.520Z,3.47
2023-04-10T12:08:54.498Z,4.80
2023-04-10T12:13:57.357Z,3.05
2023-04-10T12:18:59.064Z,3.10
2023-04-10T12:24:00.754Z,2.55
2023-04-10T12:29:02.461Z,2.92
2023-04-10T12:34:04.376Z,2.35
2023-04-10T12:39:22.519Z,3.20
2023-04-10T12:44:24.172Z,3.17
2023-04-10T12:49:25.767Z,3.15
2023-04-10T12:54:32.516Z,3.50
2023-04-10T12:59:34.301Z,3.95
2023-04-10T13:04:36.066Z,3.08
2023-04-10T13:09:37.820Z,4.03
2023-04-10T13:14:39.354Z,3.88
2023-04-10T13:19:40.877Z,4.68
2023-04-10T13:24:43.169Z,5.32
2023-04-10T13:29:44.658Z,2.55
2023-04-10T13:34:46.171Z,3.60
2023-04-10T13:39:47.703Z,3.20
2023-04-10T13:44:49.210Z,2.75
2023-04-10T13:49:50.744Z,3.30
2023-04-10T13:54:52.265Z,3.20
2023-04-10T13:59:53.950Z,3.58
2023-04-10T14:04:55.463Z,3.53
2023-04-10T14:09:56.983Z,4.50
2023-04-10T14:14:59.228Z,2.90
2023-04-10T14:20:00.740Z,2.83
2023-04-10T14:25:12.461Z,3.00
2023-04-10T14:30:14.974Z,3.45
2023-04-10T14:35:17.017Z,3.45
2023-04-10T14:40:22.089Z,2.95
2023-04-10T14:45:23.727Z,2.63
2023-04-10T14:50:25.298Z,2.88
2023-04-10T14:55:29.357Z,2.72
2023-04-10T15:00:30.893Z,3.17
2023-04-10T15:05:32.513Z,3.08
2023-04-10T15:10:34.083Z,2.53
2023-04-10T15:15:35.650Z,2.90
2023-04-10T15:20:38.288Z,4.13
2023-04-10T15:25:39.838Z,3.10
2023-04-10T15:30:45.139Z,4.05
2023-04-10T15:35:48.817Z,3.20
2023-04-10T15:40:50.372Z,3.38
2023-04-10T15:45:51.961Z,2.97
2023-04-10T15:50:53.539Z,2.63
2023-04-10T15:55:55.112Z,4.47
2023-04-10T16:00:56.650Z,2.70
2023-04-10T16:05:58.248Z,4.50
2023-04-10T16:10:59.876Z,3.20
2023-04-10T16:16:01.493Z,4.03
2023-04-10T16:21:07.618Z,4.97
2023-04-10T16:26:09.147Z,5.85
2023-04-10T16:31:10.881Z,3.10
2023-04-10T16:36:12.476Z,2.95
2023-04-10T16:41:14.051Z,4.72
2023-04-10T16:46:15.664Z,3.88
2023-04-10T16:51:18.213Z,4.47
2023-04-10T16:56:19.771Z,3.47
2023-04-10T17:01:22.787Z,3.50
2023-04-10T17:06:24.341Z,3.63
2023-04-10T17:11:25.907Z,3.95
2023-04-10T17:16:29.217Z,2.45
2023-04-10T17:21:30.742Z,3.13
2023-04-10T17:26:32.281Z,6.30
2023-04-10T17:31:33.867Z,3.08
2023-04-10T17:36:35.460Z,3.72
2023-04-10T17:41:36.987Z,3.78
2023-04-10T17:46:38.589Z,3.40
2023-04-10T17:51:40.105Z,3.47
2023-04-10T17:56:42.074Z,4.85
2023-04-10T18:01:44.184Z,3.80
2023-04-10T18:06:45.806Z,4.10
2023-04-10T18:11:48.084Z,4.13
2023-04-10T18:16:49.605Z,4.35
2023-04-10T18:21:51.181Z,4.53
2023-04-10T18:26:52.723Z,4.53
2023-04-10T18:31:54.284Z,3.53
2023-04-10T18:36:55.818Z,3.35
2023-04-10T18:41:57.349Z,3.53
2023-04-10T18:47:04.440Z,4.05
2023-04-10T18:52:06.741Z,4.20
2023-04-10T18:57:08.295Z,4.45
2023-04-10T19:02:10.128Z,3.90
2023-04-10T19:07:11.859Z,4.65
2023-04-10T19:12:13.540Z,2.97
2023-04-10T19:17:17.885Z,5.05
2023-04-10T19:22:19.702Z,3.83
2023-04-10T19:27:21.372Z,4.43
2023-04-10T19:32:24.115Z,4.05
2023-04-10T19:37:25.841Z,4.22
2023-04-10T19:42:27.541Z,6.35
2023-04-10T19:47:29.113Z,5.82
2023-04-10T19:52:30.765Z,4.88
2023-04-10T19:57:32.330Z,4.57
2023-04-10T20:02:34.079Z,4.72
2023-04-10T20:07:36.293Z,5.68
2023-04-10T20:12:37.951Z,5.60
2023-04-10T20:17:39.596Z,5.60
2023-04-10T20:22:41.260Z,4.68
2023-04-10T20:27:42.774Z,4.32
2023-04-10T20:32:44.338Z,5.53
2023-04-10T20:37:45.888Z,6.15
2023-04-10T20:42:47.488Z,6.10
2023-04-10T20:47:49.049Z,4.75
2023-04-10T20:52:50.584Z,4.53
2023-04-10T20:57:52.161Z,2.78
2023-04-10T21:02:53.978Z,3.45
2023-04-10T21:07:55.688Z,5.53
2023-04-10T21:12:57.303Z,7.45
2023-04-10T21:17:58.907Z,4.88
2023-04-10T21:23:01.301Z,5.45
2023-04-10T21:28:02.956Z,4.40
2023-04-10T21:33:04.768Z,6.45
2023-04-10T21:38:06.409Z,4.43
2023-04-10T21:43:07.996Z,2.92
2023-04-10T21:48:09.609Z,4.15
2023-04-10T21:53:11.235Z,5.00
2023-04-10T21:58:12.855Z,3.85
2023-04-10T22:03:15.160Z,4.93
2023-04-10T22:08:16.857Z,6.78
2023-04-10T22:13:29.794Z,2.45
2023-04-10T22:18:32.712Z,3.63
2023-04-10T22:23:34.453Z,5.45
2023-04-10T22:28:36.327Z,3.95
2023-04-10T22:33:38.085Z,3.17
2023-04-10T22:38:39.875Z,3.75
2023-04-10T22:43:41.615Z,3.42
2023-04-10T22:48:44.481Z,5.10
2023-04-10T22:53:47.730Z,3.78
2023-04-10T22:58:49.309Z,5.70
2023-04-10T23:03:50.941Z,2.75
2023-04-10T23:08:52.920Z,5.65
2023-04-10T23:13:54.707Z,4.25
2023-04-10T23:18:56.573Z,3.53
2023-04-10T23:23:58.415Z,3.30
2023-04-10T23:29:00.828Z,3.28
2023-04-10T23:34:03.812Z,3.97
2023-04-10T23:39:05.486Z,3.88
2023-04-10T23:44:07.215Z,3.10
2023-04-10T23:49:08.910Z,8.18
2023-04-10T23:54:11.833Z,3.45
2023-04-10T23:59:13.464Z,2.60
